Terminal Aerodrome Forecast
Issued by NWS

Home | Current Version | Previous Version | Text Only | Print | Product List | Glossary On
Versions: 1 2 3 4 5 6 7 8 9 10 11 12 13 14 15
000
FTUS44 KCRP 212300
TAFLRD
TAF
KLRD 212320Z 2200/2224 14015G20KT P6SM VCSH SCT035 BKN040
     FM220300 14015KT P6SM BKN025 OVC040
     FM220700 14012KT 5SM BR SCT008 OVC015
     FM221600 15015G25KT P6SM VCTS BKN025CB PROB30 2217/2222
      VRB25G35KT 4SM TSRA SCT030CB BKN040=

USA.gov is the U.S. government's official web portal to all federal, state and local government web resources and services.